createdAt,value
2022-11-24T00:00:33.065Z,16.70
2022-11-24T00:01:33.061Z,16.75
2022-11-24T00:02:33.199Z,16.71
2022-11-24T00:03:33.165Z,16.75
2022-11-24T00:04:33.312Z,16.71
2022-11-24T00:05:33.041Z,16.71
2022-11-24T00:06:33.036Z,16.73
2022-11-24T00:07:33.113Z,16.66
2022-11-24T00:08:33.040Z,16.75
2022-11-24T00:09:33.031Z,16.64
2022-11-24T00:10:33.033Z,16.63
2022-11-24T00:11:33.016Z,16.67
2022-11-24T00:12:33.023Z,16.64
2022-11-24T00:13:33.014Z,16.71
2022-11-24T00:14:33.408Z,16.70
2022-11-24T00:15:33.007Z,16.70
2022-11-24T00:16:33.066Z,16.75
2022-11-24T00:17:32.992Z,16.67
2022-11-24T00:18:33.017Z,16.57
2022-11-24T00:19:32.990Z,16.63
2022-11-24T00:20:32.985Z,16.66
2022-11-24T00:21:32.982Z,16.64
2022-11-24T00:22:32.981Z,16.63
2022-11-24T00:23:33.004Z,16.57
2022-11-24T00:24:33.220Z,16.66
2022-11-24T00:25:33.008Z,16.60
2022-11-24T00:26:32.972Z,16.61
2022-11-24T00:27:32.964Z,16.71
2022-11-24T00:28:32.957Z,16.67
2022-11-24T00:29:32.958Z,16.60
2022-11-24T00:30:33.013Z,16.68
2022-11-24T00:31:33.039Z,16.61
2022-11-24T00:32:32.935Z,16.60
2022-11-24T00:33:32.938Z,16.61
2022-11-24T00:34:33.347Z,16.70
2022-11-24T00:35:32.933Z,16.70
2022-11-24T00:36:32.927Z,16.75
2022-11-24T00:37:32.921Z,16.61
2022-11-24T00:38:32.915Z,16.75
2022-11-24T00:39:32.938Z,16.73
2022-11-24T00:40:35.122Z,16.63
2022-11-24T00:41:32.908Z,16.70
2022-11-24T00:42:32.912Z,16.70
2022-11-24T00:43:32.899Z,16.61
2022-11-24T00:44:33.143Z,16.57
2022-11-24T00:45:33.030Z,16.57
2022-11-24T00:46:32.979Z,16.70
2022-11-24T00:47:32.887Z,16.63
2022-11-24T00:48:32.884Z,16.63
2022-11-24T00:49:32.877Z,16.63
2022-11-24T00:50:32.863Z,16.60
2022-11-24T00:51:32.877Z,16.70
2022-11-24T00:52:32.865Z,16.68
2022-11-24T00:53:32.855Z,16.56
2022-11-24T00:54:33.087Z,16.60
2022-11-24T00:55:32.886Z,16.67
2022-11-24T00:56:32.843Z,16.58
2022-11-24T00:57:32.838Z,16.57
2022-11-24T00:58:32.837Z,16.70
2022-11-24T00:59:32.843Z,16.58
2022-11-24T01:00:32.832Z,16.71
2022-11-24T01:01:32.921Z,16.58
2022-11-24T01:02:32.877Z,16.70
2022-11-24T01:03:32.822Z,16.68
2022-11-24T01:04:33.149Z,16.70
2022-11-24T01:05:32.824Z,16.63
2022-11-24T01:06:32.951Z,16.71
2022-11-24T01:07:32.864Z,16.63
2022-11-24T01:08:32.811Z,16.58
2022-11-24T01:09:32.792Z,16.57
2022-11-24T01:10:32.793Z,16.58
2022-11-24T01:11:32.813Z,16.60
2022-11-24T01:12:32.793Z,16.60
2022-11-24T01:13:32.791Z,16.67
2022-11-24T01:14:33.269Z,16.57
2022-11-24T01:15:32.815Z,16.71
2022-11-24T01:16:32.775Z,16.60
2022-11-24T01:17:32.770Z,16.57
2022-11-24T01:18:32.770Z,16.58
2022-11-24T01:19:32.764Z,16.57
2022-11-24T01:20:32.754Z,16.71
2022-11-24T01:21:32.759Z,16.57
2022-11-24T01:22:32.761Z,16.60
2022-11-24T01:23:32.762Z,16.70
2022-11-24T01:24:33.115Z,16.63
2022-11-24T01:25:32.743Z,16.57
2022-11-24T01:26:32.738Z,16.57
2022-11-24T01:27:32.753Z,16.75
2022-11-24T01:28:32.733Z,16.61
2022-11-24T01:29:32.736Z,16.70
2022-11-24T01:30:32.762Z,16.63
2022-11-24T01:31:32.716Z,16.70
2022-11-24T01:32:32.722Z,16.57
2022-11-24T01:33:32.710Z,16.60
2022-11-24T01:34:33.051Z,16.57
2022-11-24T01:35:32.710Z,16.57
2022-11-24T01:36:32.696Z,16.57
2022-11-24T01:37:32.689Z,16.67
2022-11-24T01:38:32.695Z,16.58
2022-11-24T01:39:32.690Z,16.60
2022-11-24T01:40:32.690Z,16.57
2022-11-24T01:41:32.682Z,16.57
2022-11-24T01:42:32.676Z,16.66
2022-11-24T01:43:32.694Z,16.53
2022-11-24T01:44:33.085Z,16.57
2022-11-24T01:45:32.671Z,16.57
2022-11-24T01:46:32.750Z,16.57
2022-11-24T01:47:32.650Z,16.60
2022-11-24T01:48:32.654Z,16.58
2022-11-24T01:49:32.655Z,16.61
2022-11-24T01:50:32.654Z,16.58
2022-11-24T01:51:32.634Z,16.57
2022-11-24T01:52:32.640Z,16.58
2022-11-24T01:53:32.633Z,16.60
2022-11-24T01:54:32.885Z,16.66
2022-11-24T01:55:32.622Z,16.60
2022-11-24T01:56:32.616Z,16.60
2022-11-24T01:57:32.610Z,16.67
2022-11-24T01:58:32.618Z,16.66
2022-11-24T01:59:32.632Z,16.57
2022-11-24T02:00:32.610Z,16.58
2022-11-24T02:01:32.638Z,16.68
2022-11-24T02:02:32.670Z,16.56
2022-11-24T02:03:32.595Z,16.57
2022-11-24T02:04:33.011Z,16.60
2022-11-24T02:05:32.586Z,16.57
2022-11-24T02:06:32.582Z,16.57
2022-11-24T02:07:32.624Z,16.58
2022-11-24T02:08:32.592Z,16.56
2022-11-24T02:09:32.567Z,16.57
2022-11-24T02:10:32.576Z,16.67
2022-11-24T02:11:32.568Z,16.63
2022-11-24T02:12:32.557Z,16.58
2022-11-24T02:13:32.554Z,16.64
2022-11-24T02:14:32.803Z,16.63
2022-11-24T02:15:32.635Z,16.63
2022-11-24T02:16:32.544Z,16.57
2022-11-24T02:17:32.540Z,16.64
2022-11-24T02:18:32.534Z,16.57
2022-11-24T02:19:32.542Z,16.64
2022-11-24T02:20:32.523Z,16.63
2022-11-24T02:21:32.547Z,16.61
2022-11-24T02:22:32.517Z,16.63
2022-11-24T02:23:32.513Z,16.61
2022-11-24T02:24:32.889Z,16.60
2022-11-24T02:25:32.507Z,16.64
2022-11-24T02:26:32.513Z,16.67
2022-11-24T02:27:32.500Z,16.60
2022-11-24T02:28:32.495Z,16.63
2022-11-24T02:29:32.494Z,16.60
2022-11-24T02:30:32.487Z,16.58
2022-11-24T02:31:32.663Z,16.63
2022-11-24T02:32:32.481Z,16.58
2022-11-24T02:33:32.477Z,16.60
2022-11-24T02:34:32.892Z,16.66
2022-11-24T02:35:32.479Z,16.61
2022-11-24T02:36:32.477Z,16.60
2022-11-24T02:37:32.472Z,16.63
2022-11-24T02:38:32.476Z,16.67
2022-11-24T02:39:32.452Z,16.57
2022-11-24T02:40:32.461Z,16.61
2022-11-24T02:41:32.448Z,16.63
2022-11-24T02:42:32.443Z,16.58
2022-11-24T02:43:32.447Z,16.58
2022-11-24T02:44:32.725Z,16.68
2022-11-24T02:45:32.445Z,16.58
2022-11-24T02:46:32.463Z,16.64
2022-11-24T02:47:32.445Z,16.58
2022-11-24T02:48:32.424Z,16.58
2022-11-24T02:49:32.419Z,16.64
2022-11-24T02:50:32.411Z,16.56
2022-11-24T02:51:32.406Z,16.58
2022-11-24T02:52:32.410Z,16.67
2022-11-24T02:53:32.405Z,16.63
2022-11-24T02:54:32.864Z,16.56
2022-11-24T02:55:32.406Z,16.60
2022-11-24T02:56:32.391Z,16.63
2022-11-24T02:57:32.395Z,16.58
2022-11-24T02:58:32.387Z,16.61
2022-11-24T02:59:32.378Z,16.60
2022-11-24T03:00:32.379Z,16.63
2022-11-24T03:01:32.468Z,16.64
2022-11-24T03:02:32.447Z,16.64
2022-11-24T03:03:32.388Z,16.57
2022-11-24T03:04:32.739Z,16.64
2022-11-24T03:05:32.353Z,16.61
2022-11-24T03:06:32.355Z,16.56
2022-11-24T03:07:32.452Z,16.61
2022-11-24T03:08:32.346Z,16.60
2022-11-24T03:09:32.346Z,16.63
2022-11-24T03:10:32.348Z,16.57
2022-11-24T03:11:32.346Z,16.57
2022-11-24T03:12:32.335Z,16.60
2022-11-24T03:13:32.330Z,16.60
2022-11-24T03:14:32.912Z,16.58
2022-11-24T03:15:32.340Z,16.52
2022-11-24T03:16:32.329Z,16.57
2022-11-24T03:17:32.311Z,16.58
2022-11-24T03:18:32.303Z,16.61
2022-11-24T03:19:32.330Z,16.57
2022-11-24T03:20:32.300Z,16.53
2022-11-24T03:21:32.301Z,16.61
2022-11-24T03:22:32.309Z,16.58
2022-11-24T03:23:32.292Z,16.60
2022-11-24T03:24:32.671Z,16.60
2022-11-24T03:25:32.306Z,16.61
2022-11-24T03:26:32.294Z,16.58
2022-11-24T03:27:32.281Z,16.60
2022-11-24T03:28:32.290Z,16.58
2022-11-24T03:29:32.279Z,16.58
2022-11-24T03:30:32.269Z,16.56
2022-11-24T03:31:32.296Z,16.58
2022-11-24T03:32:32.262Z,16.50
2022-11-24T03:33:32.279Z,16.58
2022-11-24T03:34:32.699Z,16.60
2022-11-24T03:35:32.273Z,16.58
2022-11-24T03:36:32.238Z,16.57
2022-11-24T03:37:32.236Z,16.61
2022-11-24T03:38:32.231Z,16.53
2022-11-24T03:39:32.239Z,16.52
2022-11-24T03:40:32.226Z,16.58
2022-11-24T03:41:32.231Z,16.56
2022-11-24T03:42:32.213Z,16.58
2022-11-24T03:43:32.220Z,16.58
2022-11-24T03:44:32.656Z,16.53
2022-11-24T03:45:45.837Z,16.56
2022-11-24T03:46:32.268Z,16.57
2022-11-24T03:47:32.199Z,16.57
2022-11-24T03:48:32.194Z,16.57
2022-11-24T03:49:32.560Z,16.48
2022-11-24T03:50:32.193Z,16.60
2022-11-24T03:51:32.202Z,16.45
2022-11-24T03:52:32.182Z,16.49
2022-11-24T03:53:32.189Z,16.57
2022-11-24T03:54:32.533Z,16.56
2022-11-24T03:55:32.175Z,16.52
2022-11-24T03:56:32.162Z,16.53
2022-11-24T03:57:32.170Z,16.57
2022-11-24T03:58:32.162Z,16.56
2022-11-24T03:59:32.158Z,16.50
2022-11-24T04:00:32.151Z,16.57
2022-11-24T04:01:32.227Z,16.53
2022-11-24T04:02:32.249Z,16.57
2022-11-24T04:03:32.143Z,16.52
2022-11-24T04:04:32.409Z,16.57
2022-11-24T04:05:32.140Z,16.49
2022-11-24T04:06:32.128Z,16.49
2022-11-24T04:07:32.229Z,16.52
2022-11-24T04:08:32.121Z,16.48
2022-11-24T04:09:32.119Z,16.48
2022-11-24T04:10:32.113Z,16.56
2022-11-24T04:11:32.113Z,16.60
2022-11-24T04:12:32.197Z,16.50
2022-11-24T04:13:32.125Z,16.61
2022-11-24T04:14:32.421Z,16.56
2022-11-24T04:15:32.095Z,16.52
2022-11-24T04:16:32.126Z,16.56
2022-11-24T04:17:32.093Z,16.56
2022-11-24T04:18:32.081Z,16.52
2022-11-24T04:19:32.080Z,16.53
2022-11-24T04:20:32.071Z,16.45
2022-11-24T04:21:32.080Z,16.60
2022-11-24T04:22:32.070Z,16.57
2022-11-24T04:23:32.078Z,16.57
2022-11-24T04:24:32.445Z,16.49
2022-11-24T04:25:32.050Z,16.50
2022-11-24T04:26:32.049Z,16.50
2022-11-24T04:27:32.042Z,16.56
2022-11-24T04:28:32.042Z,16.50
2022-11-24T04:29:32.035Z,16.56
2022-11-24T04:30:32.037Z,16.53
2022-11-24T04:31:32.099Z,16.49
2022-11-24T04:32:32.026Z,16.57
2022-11-24T04:33:32.049Z,16.52
2022-11-24T04:34:32.464Z,16.57
2022-11-24T04:35:32.018Z,16.48
2022-11-24T04:36:32.011Z,16.46
2022-11-24T04:37:32.008Z,16.50
2022-11-24T04:39:25.565Z,16.60
2022-11-24T04:39:32.028Z,16.49
2022-11-24T04:40:31.999Z,16.57
2022-11-24T04:41:31.991Z,16.52
2022-11-24T04:42:31.995Z,16.53
2022-11-24T04:43:36.384Z,16.52
2022-11-24T04:44:32.613Z,16.50
2022-11-24T04:45:31.974Z,16.49
2022-11-24T04:46:32.049Z,16.53
2022-11-24T04:47:31.969Z,16.56
2022-11-24T04:48:31.964Z,16.52
2022-11-24T04:49:31.968Z,16.50
2022-11-24T04:50:31.965Z,16.52
2022-11-24T04:51:31.959Z,16.49
2022-11-24T04:52:31.954Z,16.43
2022-11-24T04:53:31.949Z,16.53
2022-11-24T04:54:32.276Z,16.57
2022-11-24T04:55:31.960Z,16.57
2022-11-24T04:56:31.932Z,16.57
2022-11-24T04:57:31.938Z,16.50
2022-11-24T04:58:31.928Z,16.53
2022-11-24T04:59:31.926Z,16.53
2022-11-24T05:00:31.948Z,16.53
2022-11-24T05:01:31.970Z,16.60
2022-11-24T05:02:31.911Z,16.48
2022-11-24T05:03:31.912Z,16.57
2022-11-24T05:04:32.321Z,16.53
2022-11-24T05:05:31.899Z,16.57
2022-11-24T05:06:31.902Z,16.52
2022-11-24T05:07:31.947Z,16.57
2022-11-24T05:08:31.899Z,16.58
2022-11-24T05:09:48.166Z,16.57
2022-11-24T05:10:31.891Z,16.53
2022-11-24T05:11:31.926Z,16.50
2022-11-24T05:12:31.873Z,16.48
2022-11-24T05:13:31.873Z,16.50
2022-11-24T05:14:32.258Z,16.50
2022-11-24T05:15:31.861Z,16.52
2022-11-24T05:16:31.976Z,16.48
2022-11-24T05:17:31.863Z,16.49
2022-11-24T05:18:31.850Z,16.50
2022-11-24T05:19:32.444Z,16.48
2022-11-24T05:20:31.841Z,16.48
2022-11-24T05:21:31.859Z,16.57
2022-11-24T05:22:31.849Z,16.49
2022-11-24T05:23:31.835Z,16.56
2022-11-24T05:24:32.350Z,16.58
2022-11-24T05:25:31.842Z,16.53
2022-11-24T05:26:31.831Z,16.48
2022-11-24T05:27:31.838Z,16.50
2022-11-24T05:28:31.814Z,16.53
2022-11-24T05:29:31.809Z,16.53
2022-11-24T05:30:31.806Z,16.57
2022-11-24T05:31:31.843Z,16.56
2022-11-24T05:32:31.809Z,16.50
2022-11-24T05:33:31.793Z,16.52
2022-11-24T05:34:32.161Z,16.53
2022-11-24T05:35:31.791Z,16.49
2022-11-24T05:36:31.776Z,16.52
2022-11-24T05:37:31.775Z,16.48
2022-11-24T05:38:31.780Z,16.48
2022-11-24T05:39:31.783Z,16.57
2022-11-24T05:40:31.763Z,16.49
2022-11-24T05:41:31.776Z,16.53
2022-11-24T05:42:31.762Z,16.53
2022-11-24T05:43:31.793Z,16.52
2022-11-24T05:44:32.182Z,16.50
2022-11-24T05:45:31.776Z,16.50
2022-11-24T05:46:31.812Z,16.52
2022-11-24T05:47:31.740Z,16.48
2022-11-24T05:48:31.744Z,16.50
2022-11-24T05:49:31.747Z,16.53
2022-11-24T05:50:31.732Z,16.43
2022-11-24T05:51:31.742Z,16.43
2022-11-24T05:52:31.742Z,16.52
2022-11-24T05:53:31.732Z,16.48
2022-11-24T05:54:32.117Z,16.56
2022-11-24T05:55:31.727Z,16.48
2022-11-24T05:56:31.698Z,16.48
2022-11-24T05:57:31.711Z,16.46
2022-11-24T05:58:31.707Z,16.45
2022-11-24T05:59:31.714Z,16.53
2022-11-24T06:00:31.688Z,16.52
2022-11-24T06:01:31.771Z,16.45
2022-11-24T06:02:31.810Z,16.45
2022-11-24T06:03:31.696Z,16.46
2022-11-24T06:04:31.811Z,16.49
2022-11-24T06:05:31.681Z,16.43
2022-11-24T06:06:31.661Z,16.49
2022-11-24T06:07:31.782Z,16.52
2022-11-24T06:08:31.720Z,16.53
2022-11-24T06:09:31.671Z,16.48
2022-11-24T06:10:31.661Z,16.41
2022-11-24T06:11:31.645Z,16.49
2022-11-24T06:12:31.655Z,16.49
2022-11-24T06:13:31.696Z,16.42
2022-11-24T06:14:31.984Z,16.46
2022-11-24T06:15:31.656Z,16.46
2022-11-24T06:16:31.734Z,16.48
2022-11-24T06:17:31.636Z,16.43
2022-11-24T06:18:31.630Z,16.52
2022-11-24T06:19:31.615Z,16.52
2022-11-24T06:20:33.016Z,16.50
2022-11-24T06:21:31.613Z,16.56
2022-11-24T06:22:31.623Z,16.46
2022-11-24T06:23:31.599Z,16.52
2022-11-24T06:24:31.795Z,16.57
2022-11-24T06:25:31.606Z,16.61
2022-11-24T06:26:31.587Z,16.58
2022-11-24T06:27:31.594Z,16.58
2022-11-24T06:28:31.596Z,16.57
2022-11-24T06:29:31.593Z,16.70
2022-11-24T06:30:31.597Z,16.68
2022-11-24T06:31:31.666Z,16.71
2022-11-24T06:32:31.581Z,16.71
2022-11-24T06:33:31.582Z,16.78
2022-11-24T06:34:31.847Z,16.76
2022-11-24T06:35:31.555Z,16.75
2022-11-24T06:36:31.563Z,16.89
2022-11-24T06:37:31.581Z,16.96
2022-11-24T06:38:31.564Z,16.97
2022-11-24T06:39:31.542Z,17.00
2022-11-24T06:40:31.542Z,17.08
2022-11-24T06:41:31.562Z,17.03
2022-11-24T06:42:31.536Z,17.11
2022-11-24T06:43:31.548Z,17.12
2022-11-24T06:44:31.715Z,17.14
2022-11-24T06:45:31.578Z,17.18
2022-11-24T06:46:31.532Z,17.12
2022-11-24T06:47:31.649Z,17.23
2022-11-24T06:48:31.510Z,17.19
2022-11-24T06:49:31.522Z,17.33
2022-11-24T06:50:33.698Z,17.28
2022-11-24T06:51:31.507Z,17.34
2022-11-24T06:52:31.499Z,17.34
2022-11-24T06:53:31.514Z,17.34
2022-11-24T06:54:31.597Z,17.46
2022-11-24T06:55:31.500Z,17.52
2022-11-24T06:56:31.505Z,17.52
2022-11-24T06:57:31.495Z,17.48
2022-11-24T06:58:31.484Z,17.44
2022-11-24T06:59:31.483Z,17.49
2022-11-24T07:00:31.479Z,17.51
2022-11-24T07:01:31.525Z,17.59
2022-11-24T07:02:31.482Z,17.58
2022-11-24T07:03:31.537Z,17.52
2022-11-24T07:04:31.659Z,17.59
2022-11-24T07:05:31.465Z,17.56
2022-11-24T07:06:31.476Z,17.54
2022-11-24T07:07:31.511Z,17.62
2022-11-24T07:08:31.465Z,17.59
2022-11-24T07:09:31.469Z,17.63
2022-11-24T07:10:31.452Z,17.64
2022-11-24T07:11:31.462Z,17.66
2022-11-24T07:12:31.455Z,17.59
2022-11-24T07:13:31.438Z,17.66
2022-11-24T07:14:31.806Z,17.66
2022-11-24T07:15:31.438Z,17.62
2022-11-24T07:16:31.469Z,17.68
2022-11-24T07:17:31.436Z,17.66
2022-11-24T07:18:31.424Z,17.70
2022-11-24T07:19:31.434Z,17.70
2022-11-24T07:20:31.423Z,17.75
2022-11-24T07:21:31.416Z,17.62
2022-11-24T07:22:31.412Z,17.68
2022-11-24T07:23:31.405Z,17.71
2022-11-24T07:24:31.618Z,17.68
2022-11-24T07:25:31.399Z,17.64
2022-11-24T07:26:31.399Z,17.68
2022-11-24T07:27:31.398Z,17.64
2022-11-24T07:28:31.404Z,17.68
2022-11-24T07:29:31.384Z,17.66
2022-11-24T07:30:31.390Z,17.68
2022-11-24T07:31:31.447Z,17.62
2022-11-24T07:32:31.399Z,17.66
2022-11-24T07:33:31.387Z,17.64
2022-11-24T07:34:31.513Z,17.62
2022-11-24T07:35:31.393Z,17.68
2022-11-24T07:36:31.368Z,17.58
2022-11-24T07:37:31.957Z,17.62
2022-11-24T07:38:31.368Z,17.62
2022-11-24T07:39:31.374Z,17.64
2022-11-24T07:40:31.359Z,17.58
2022-11-24T07:41:31.374Z,17.59
2022-11-24T07:42:31.366Z,17.62
2022-11-24T07:43:31.358Z,17.56
2022-11-24T07:44:31.554Z,17.66
2022-11-24T07:45:31.446Z,17.59
2022-11-24T07:46:31.355Z,17.52
2022-11-24T07:47:31.350Z,17.62
2022-11-24T07:48:31.351Z,17.55
2022-11-24T07:49:31.329Z,17.59
2022-11-24T07:50:31.345Z,17.46
2022-11-24T07:51:31.372Z,17.49
2022-11-24T07:52:31.334Z,17.48
2022-11-24T07:53:31.328Z,17.49
2022-11-24T07:54:31.495Z,17.46
2022-11-24T07:55:31.381Z,17.43
2022-11-24T07:56:31.318Z,17.43
2022-11-24T07:57:31.303Z,17.55
2022-11-24T07:58:32.823Z,17.56
2022-11-24T07:59:31.318Z,17.55
2022-11-24T08:00:31.319Z,17.52
2022-11-24T08:01:31.349Z,17.51
2022-11-24T08:02:31.310Z,17.46
2022-11-24T08:03:31.319Z,17.48
2022-11-24T08:04:31.482Z,17.52
2022-11-24T08:05:31.282Z,17.49
2022-11-24T08:06:39.660Z,17.48
2022-11-24T08:07:31.422Z,17.49
2022-11-24T08:08:31.293Z,17.44
2022-11-24T08:09:31.282Z,17.48
2022-11-24T08:10:31.284Z,17.44
2022-11-24T08:11:31.271Z,17.49
2022-11-24T08:12:31.287Z,17.49
2022-11-24T08:13:31.291Z,17.49
2022-11-24T08:14:31.321Z,17.46
2022-11-24T08:15:31.250Z,17.46
2022-11-24T08:16:31.272Z,17.46
2022-11-24T08:17:31.245Z,17.46
2022-11-24T08:18:31.272Z,17.43
2022-11-24T08:19:31.234Z,17.37
2022-11-24T08:20:31.237Z,17.28
2022-11-24T08:21:31.349Z,17.33
2022-11-24T08:22:31.256Z,17.28
2022-11-24T08:23:31.242Z,17.34
2022-11-24T08:24:31.498Z,17.33
2022-11-24T08:25:31.219Z,17.34
2022-11-24T08:26:31.232Z,17.28
2022-11-24T08:27:31.224Z,17.33
2022-11-24T08:28:31.217Z,17.36
2022-11-24T08:29:31.205Z,17.34
2022-11-24T08:30:31.262Z,17.30
2022-11-24T08:31:31.314Z,17.36
2022-11-24T08:32:31.228Z,17.36
2022-11-24T08:33:31.205Z,17.28
2022-11-24T08:34:31.377Z,17.26
2022-11-24T08:35:31.224Z,17.30
2022-11-24T08:36:31.242Z,17.25
2022-11-24T08:37:31.263Z,17.28
2022-11-24T08:38:31.227Z,17.25
2022-11-24T08:39:31.227Z,17.26
2022-11-24T08:40:31.186Z,17.28
2022-11-24T08:41:31.169Z,17.31
2022-11-24T08:42:31.178Z,17.25
2022-11-24T08:43:31.171Z,17.26
2022-11-24T08:44:31.158Z,17.25
2022-11-24T08:45:32.545Z,17.28
2022-11-24T08:46:31.269Z,17.23
2022-11-24T08:47:31.149Z,17.19
2022-11-24T08:48:31.173Z,17.22
2022-11-24T08:49:31.140Z,17.23
2022-11-24T08:50:31.143Z,17.28
2022-11-24T08:51:31.156Z,17.25
2022-11-24T08:52:31.161Z,17.21
2022-11-24T08:53:31.176Z,17.18
2022-11-24T08:54:31.144Z,17.18
2022-11-24T08:55:31.147Z,17.23
2022-11-24T08:56:31.146Z,17.19
2022-11-24T08:57:31.124Z,17.22
2022-11-24T08:58:31.123Z,17.19
2022-11-24T08:59:31.180Z,17.18
2022-11-24T09:00:31.111Z,17.14
2022-11-24T09:01:31.184Z,17.15
2022-11-24T09:02:31.128Z,17.18
2022-11-24T09:03:31.094Z,17.16
2022-11-24T09:04:31.227Z,17.14
2022-11-24T09:05:53.763Z,17.22
2022-11-24T09:06:31.195Z,17.15
2022-11-24T09:07:31.155Z,17.19
2022-11-24T09:08:31.111Z,17.19
2022-11-24T09:09:31.081Z,17.12
2022-11-24T09:10:31.078Z,17.19
2022-11-24T09:11:31.111Z,17.16
2022-11-24T09:12:31.081Z,17.15
2022-11-24T09:13:31.065Z,17.11
2022-11-24T09:14:31.277Z,17.11
2022-11-24T09:15:31.054Z,17.19
2022-11-24T09:16:31.135Z,17.21
2022-11-24T09:17:31.071Z,17.18
2022-11-24T09:18:31.074Z,17.22
2022-11-24T09:19:31.164Z,17.11
2022-11-24T09:20:31.056Z,17.18
2022-11-24T09:21:31.054Z,17.04
2022-11-24T09:22:31.073Z,17.14
2022-11-24T09:23:31.051Z,17.08
2022-11-24T09:24:31.045Z,17.08
2022-11-24T09:25:31.043Z,17.08
2022-11-24T09:26:31.030Z,17.07
2022-11-24T09:27:31.039Z,17.06
2022-11-24T09:28:31.042Z,17.06
2022-11-24T09:29:31.072Z,17.07
2022-11-24T09:30:31.150Z,17.07
2022-11-24T09:31:31.053Z,17.07
2022-11-24T09:32:31.024Z,17.04
2022-11-24T09:33:31.010Z,17.03
2022-11-24T09:34:31.010Z,17.03
2022-11-24T09:35:30.985Z,17.06
2022-11-24T09:36:30.998Z,17.03
2022-11-24T09:37:32.909Z,17.07
2022-11-24T09:38:30.983Z,17.01
2022-11-24T09:39:31.042Z,17.07
2022-11-24T09:40:30.986Z,17.08
2022-11-24T09:41:30.983Z,17.06
2022-11-24T09:42:30.973Z,17.03
2022-11-24T09:43:30.982Z,17.00
2022-11-24T09:44:30.964Z,17.07
2022-11-24T09:46:03.450Z,17.11
2022-11-24T09:46:31.015Z,17.06
2022-11-24T09:47:30.973Z,17.06
2022-11-24T09:48:31.070Z,17.04
2022-11-24T09:49:31.018Z,17.03
2022-11-24T09:50:30.957Z,17.04
2022-11-24T09:51:31.028Z,17.08
2022-11-24T09:52:30.930Z,17.12
2022-11-24T09:53:30.923Z,17.08
2022-11-24T09:54:30.937Z,17.03
2022-11-24T09:55:30.934Z,17.03
2022-11-24T09:56:30.930Z,17.03
2022-11-24T09:57:36.945Z,17.12
2022-11-24T09:58:30.967Z,17.06
2022-11-24T09:59:30.986Z,17.07
2022-11-24T10:00:30.947Z,17.06
2022-11-24T10:01:30.952Z,17.06
2022-11-24T10:02:30.947Z,17.07
2022-11-24T10:03:30.951Z,17.12
2022-11-24T10:04:30.977Z,17.07
2022-11-24T10:05:30.886Z,17.03
2022-11-24T10:06:30.885Z,17.07
2022-11-24T10:07:30.918Z,17.11
2022-11-24T10:08:30.913Z,17.11
2022-11-24T10:09:30.911Z,17.06
2022-11-24T10:10:30.883Z,17.07
2022-11-24T10:11:30.864Z,17.07
2022-11-24T10:12:30.893Z,17.07
2022-11-24T10:13:30.869Z,17.06
2022-11-24T10:14:30.897Z,17.08
2022-11-24T10:15:30.984Z,17.06
2022-11-24T10:16:30.954Z,17.12
2022-11-24T10:17:30.849Z,17.08
2022-11-24T10:18:30.864Z,17.07
2022-11-24T10:19:36.945Z,17.07
2022-11-24T10:20:30.975Z,17.07
2022-11-24T10:21:30.831Z,17.14
2022-11-24T10:22:30.847Z,17.06
2022-11-24T10:23:32.666Z,17.08
2022-11-24T10:24:30.826Z,17.07
2022-11-24T10:25:30.847Z,17.07
2022-11-24T10:26:30.820Z,17.00
2022-11-24T10:27:30.813Z,17.08
2022-11-24T10:28:30.816Z,17.06
2022-11-24T10:29:30.808Z,17.08
2022-11-24T10:30:30.850Z,17.07
2022-11-24T10:31:30.887Z,17.03
2022-11-24T10:32:30.804Z,17.07
2022-11-24T10:33:31.211Z,17.03
2022-11-24T10:34:30.832Z,17.06
2022-11-24T10:35:30.851Z,17.06
2022-11-24T10:36:30.807Z,17.07
2022-11-24T10:37:30.808Z,17.06
2022-11-24T10:38:30.779Z,17.01
2022-11-24T10:39:30.789Z,17.06
2022-11-24T10:40:56.024Z,17.06
2022-11-24T10:41:30.857Z,17.07
2022-11-24T10:42:30.797Z,17.03
2022-11-24T10:43:30.756Z,17.03
2022-11-24T10:44:30.769Z,17.07
2022-11-24T10:45:30.766Z,17.06
2022-11-24T10:46:36.243Z,17.03
2022-11-24T10:47:30.788Z,17.03
2022-11-24T10:48:30.750Z,17.06
2022-11-24T10:49:30.749Z,17.07
2022-11-24T10:50:30.756Z,17.08
2022-11-24T10:51:30.837Z,17.04
2022-11-24T10:52:30.748Z,17.07
2022-11-24T10:53:30.735Z,17.06
2022-11-24T10:54:30.758Z,17.03
2022-11-24T10:55:30.730Z,17.12
2022-11-24T10:56:30.731Z,17.06
2022-11-24T10:57:30.727Z,17.08
2022-11-24T10:58:37.090Z,17.11
2022-11-24T10:59:30.711Z,17.12
2022-11-24T11:00:30.714Z,17.08
2022-11-24T11:01:30.876Z,17.11
2022-11-24T11:02:30.814Z,17.11
2022-11-24T11:03:30.717Z,17.06
2022-11-24T11:04:30.691Z,17.07
2022-11-24T11:05:30.685Z,17.07
2022-11-24T11:06:30.703Z,17.11
2022-11-24T11:07:30.833Z,17.12
2022-11-24T11:08:30.703Z,17.07
2022-11-24T11:09:30.682Z,17.12
2022-11-24T11:10:30.688Z,17.12
2022-11-24T11:11:30.751Z,17.15
2022-11-24T11:12:46.140Z,17.11
2022-11-24T11:13:30.681Z,17.11
2022-11-24T11:14:30.668Z,17.16
2022-11-24T11:15:30.753Z,17.15
2022-11-24T11:16:30.692Z,17.12
2022-11-24T11:17:30.674Z,17.15
2022-11-24T11:18:30.639Z,17.12
2022-11-24T11:19:48.482Z,17.18
2022-11-24T11:20:30.631Z,17.12
2022-11-24T11:21:30.787Z,17.16
2022-11-24T11:22:30.642Z,17.14
2022-11-24T11:23:30.625Z,17.18
2022-11-24T11:24:30.620Z,17.16
2022-11-24T11:25:30.633Z,17.14
2022-11-24T11:26:30.619Z,17.19
2022-11-24T11:27:30.620Z,17.16
2022-11-24T11:28:30.603Z,17.15
2022-11-24T11:31:30.603Z,17.21
2022-11-24T11:34:30.735Z,17.19
2022-11-24T11:35:30.626Z,17.21
2022-11-24T11:36:30.598Z,17.14
2022-11-24T11:37:30.582Z,17.12
2022-11-24T11:38:30.575Z,17.14
2022-11-24T11:39:30.588Z,17.18
2022-11-24T11:40:30.599Z,17.16
2022-11-24T11:41:30.568Z,17.19
2022-11-24T11:43:01.880Z,17.19
2022-11-24T11:43:30.575Z,17.14
2022-11-24T11:44:31.388Z,17.14
2022-11-24T11:45:30.684Z,17.21
2022-11-24T11:46:30.577Z,17.11
2022-11-24T11:47:30.561Z,17.04
2022-11-24T11:48:35.094Z,17.19
2022-11-24T11:49:30.542Z,17.15
2022-11-24T11:50:30.623Z,17.12
2022-11-24T11:51:30.725Z,17.14
2022-11-24T11:52:30.548Z,17.16
2022-11-24T11:53:30.547Z,17.08
2022-11-24T11:54:30.536Z,17.15
2022-11-24T11:55:30.535Z,17.18
2022-11-24T11:56:30.526Z,17.16
2022-11-24T11:57:30.532Z,17.12
2022-11-24T11:58:30.523Z,17.18
2022-11-24T11:59:30.508Z,17.19
2022-11-24T12:00:30.504Z,17.14
2022-11-24T12:01:30.516Z,17.25
2022-11-24T12:02:30.649Z,17.12
2022-11-24T12:03:30.612Z,17.16
2022-11-24T12:04:30.485Z,17.21
2022-11-24T12:05:30.509Z,17.11
2022-11-24T12:06:30.492Z,17.08
2022-11-24T12:07:30.566Z,17.15
2022-11-24T12:08:43.975Z,17.19
2022-11-24T12:09:30.491Z,17.11
2022-11-24T12:10:30.493Z,17.18
2022-11-24T12:11:30.479Z,17.12
2022-11-24T12:12:30.464Z,17.08
2022-11-24T12:13:30.465Z,17.14
2022-11-24T12:14:30.458Z,17.12
2022-11-24T12:15:30.469Z,17.16
2022-11-24T12:16:30.473Z,17.16
2022-11-24T12:17:30.486Z,17.07
2022-11-24T12:18:56.659Z,17.19
2022-11-24T12:19:30.446Z,17.14
2022-11-24T12:20:30.437Z,17.06
2022-11-24T12:21:30.443Z,17.22
2022-11-24T12:22:30.519Z,17.12
2022-11-24T12:23:30.463Z,17.07
2022-11-24T12:24:30.506Z,17.21
2022-11-24T12:25:30.439Z,17.15
2022-11-24T12:26:30.427Z,17.07
2022-11-24T12:27:31.034Z,17.12
2022-11-24T12:28:30.412Z,17.11
2022-11-24T12:29:30.432Z,17.04
2022-11-24T12:30:30.527Z,17.14
2022-11-24T12:31:30.463Z,17.18
2022-11-24T12:32:30.394Z,17.06
2022-11-24T12:33:30.411Z,17.12
2022-11-24T12:34:30.399Z,17.16
2022-11-24T12:35:30.410Z,17.15
2022-11-24T12:36:30.406Z,17.23
2022-11-24T12:37:30.397Z,17.06
2022-11-24T12:38:30.380Z,17.18
2022-11-24T12:39:30.395Z,17.19
2022-11-24T12:40:30.374Z,17.21
2022-11-24T12:41:45.738Z,17.16
2022-11-24T12:42:30.386Z,17.14
2022-11-24T12:43:30.385Z,17.16
2022-11-24T12:44:30.369Z,17.08
2022-11-24T12:45:30.362Z,17.16
2022-11-24T12:46:30.429Z,17.14
2022-11-24T12:47:30.365Z,17.16
2022-11-24T12:48:30.350Z,17.19
2022-11-24T12:49:30.366Z,17.14
2022-11-24T12:50:30.339Z,17.03
2022-11-24T12:51:30.349Z,17.11
2022-11-24T12:52:30.331Z,17.16
2022-11-24T12:53:30.349Z,17.19
2022-11-24T12:54:30.321Z,17.22
2022-11-24T12:55:30.348Z,17.12
2022-11-24T12:56:30.331Z,17.11